HERC9 KEDW-KDMA
Flight info
| Callsign | HERC9 |
|---|---|
| Flight time | N/A |
| Altitude | 25000 |
| Route | AERRO J65 BLH J169 TFD |
| Aircraft | C130/M-SDE2E3FGRY/H |
Departure
| Time | 2026-05-04 16:03 |
|---|---|
| Airport | Edwards Air Force Base (KEDW) |
Arrival
| Time | N/A |
|---|---|
| Airport | Davis Monthan Air Force Base (KDMA) |
| Time | Latitude | Longitude | Altitude | Speed | Heading |
|---|---|---|---|---|---|
| 2026-05-04 15:27 | 34.91635 | -117.89289 | 2336 ft | 0 kts | 239° |
| 2026-05-04 15:41 | 34.91635 | -117.89290 | 2336 ft | 0 kts | 239° |
| 2026-05-04 15:56 | 34.91635 | -117.89291 | 2336 ft | 0 kts | 247° |
| 2026-05-04 15:57 | 34.91634 | -117.89291 | 2336 ft | 0 kts | 251° |
| 2026-05-04 15:58 | 34.91634 | -117.89292 | 2336 ft | 0 kts | 256° |
| 2026-05-04 16:01 | 34.91482 | -117.89056 | 2336 ft | 381 kts | 256° |
| 2026-05-04 16:01 | 34.91327 | -117.86925 | 2325 ft | 381 kts | 256° |
| 2026-05-04 16:01 | 34.91611 | -117.86262 | 2322 ft | 0 kts | 256° |
| 2026-05-04 16:01 | 34.91609 | -117.86276 | 2323 ft | 19 kts | 261° |
| 2026-05-04 16:02 | 34.91377 | -117.86757 | 2326 ft | 110 kts | 234° |
| 2026-05-04 16:02 | 34.90842 | -117.87782 | 2467 ft | 165 kts | 239° |
| 2026-05-04 16:02 | 34.90286 | -117.88896 | 5094 ft | 7 kts | 248° |
| 2026-05-04 16:03 | 34.90043 | -117.89675 | 3847 ft | 169 kts | 238° |
| 2026-05-04 16:03 | 34.89549 | -117.90609 | 5417 ft | 124 kts | 236° |
| 2026-05-04 16:03 | 34.88983 | -117.91565 | 6001 ft | 147 kts | 233° |
| 2026-05-04 16:03 | 34.88365 | -117.92611 | 6809 ft | 155 kts | 237° |
| 2026-05-04 16:04 | 34.87764 | -117.93726 | 7652 ft | 159 kts | 238° |
| 2026-05-04 16:04 | 34.86586 | -117.95991 | 9508 ft | 127 kts | 238° |
| 2026-05-04 16:04 | 34.86257 | -117.96621 | 10880 ft | 84 kts | 237° |
| 2026-05-04 16:05 | 34.85924 | -117.97266 | 11338 ft | 97 kts | 237° |
| 2026-05-04 16:05 | 34.85589 | -117.97931 | 12049 ft | 83 kts | 238° |
| 2026-05-04 16:05 | 34.84729 | -117.98918 | 12992 ft | 112 kts | 187° |
| 2026-05-04 16:06 | 34.84023 | -117.98652 | 13791 ft | 97 kts | 166° |
| 2026-05-04 16:06 | 34.82343 | -117.97119 | 15169 ft | 116 kts | 156° |
| 2026-05-04 16:07 | 34.81522 | -117.96199 | 15789 ft | 123 kts | 155° |
| 2026-05-04 16:07 | 34.79891 | -117.93566 | 17265 ft | 139 kts | 137° |
| 2026-05-04 16:08 | 34.79451 | -117.92497 | 17697 ft | 146 kts | 136° |
| 2026-05-04 16:08 | 34.78152 | -117.89056 | 18960 ft | 155 kts | 135° |
| 2026-05-04 16:09 | 34.77295 | -117.86644 | 19828 ft | 156 kts | 135° |
| 2026-05-04 16:09 | 34.76432 | -117.84139 | 20578 ft | 162 kts | 134° |
| 2026-05-04 16:10 | 34.75558 | -117.81554 | 21327 ft | 165 kts | 134° |
| 2026-05-04 16:11 | 34.74254 | -117.77560 | 22379 ft | 171 kts | 135° |
| 2026-05-04 16:11 | 34.73822 | -117.76213 | 22680 ft | 175 kts | 134° |
| 2026-05-04 16:12 | 34.72511 | -117.72038 | 23343 ft | 177 kts | 134° |
| 2026-05-04 16:12 | 34.71001 | -117.67613 | 23253 ft | 161 kts | 135° |
| 2026-05-04 16:13 | 34.70084 | -117.64765 | 22318 ft | 208 kts | 134° |
| 2026-05-04 16:13 | 34.69029 | -117.61768 | 21830 ft | 188 kts | 134° |
| 2026-05-04 16:14 | 34.67954 | -117.58808 | 21064 ft | 184 kts | 134° |
| 2026-05-04 16:14 | 34.66889 | -117.55930 | 20244 ft | 185 kts | 134° |
| 2026-05-04 16:15 | 34.65298 | -117.51739 | 19135 ft | 179 kts | 134° |
| 2026-05-04 16:16 | 34.64255 | -117.48975 | 18275 ft | 194 kts | 115° |